Time;durP1;ratioP1;P1;durP2;ratioP2;P2;SDS_P1;SDS_P2;PMS_P1;PMS_P2;Temp;Humidity;BMP_temperature;BMP_pressure;BME280_temperature;BME280_humidity;BME280_pressure;Samples;Min_cycle;Max_cycle;Signal;HPM_P1;HPM_P2
2022/10/14 00:00:32;;;;;;;14.43;12.93;;;;;;;11.53;100.00;101577.56;5071520;28;20186;-75
2022/10/14 00:02:57;;;;;;;13.70;12.33;;;;;;;11.10;100.00;101522.84;5100321;28;20454;-75
2022/10/14 00:05:23;;;;;;;18.10;13.23;;;;;;;12.10;100.00;101678.19;5094526;28;20213;-75
2022/10/14 00:07:48;;;;;;;13.17;11.90;;;;;;;11.89;100.00;101662.81;5088893;28;20277;-75
2022/10/14 00:10:13;;;;;;;14.10;12.53;;;;;;;11.93;100.00;101631.00;5089982;28;20193;-75
2022/10/14 00:12:39;;;;;;;14.60;12.03;;;;;;;11.94;100.00;101655.00;5094959;28;20568;-75
2022/10/14 00:15:05;;;;;;;13.20;11.90;;;;;;;11.42;100.00;101544.97;5100214;28;20178;-75
2022/10/14 00:17:31;;;;;;;13.50;12.00;;;;;;;11.75;100.00;101599.13;5096827;28;20235;-75
2022/10/14 00:19:56;;;;;;;14.33;12.83;;;;;;;11.64;100.00;101581.63;5083155;28;20420;-75
2022/10/14 00:22:22;;;;;;;14.03;12.50;;;;;;;12.00;100.00;101666.88;5079622;28;20215;-75
2022/10/14 00:24:47;;;;;;;13.97;12.50;;;;;;;11.51;100.00;101560.81;5091196;28;20607;-76
2022/10/14 00:27:14;;;;;;;14.70;11.70;;;;;;;11.80;100.00;101604.75;5097544;28;20692;-75
2022/10/14 00:29:39;;;;;;;13.70;12.30;;;;;;;11.39;100.00;101564.13;5098868;28;20189;-75
2022/10/14 00:32:04;;;;;;;14.80;11.80;;;;;;;11.19;100.00;101510.16;5094410;28;20470;-75
2022/10/14 00:34:30;;;;;;;11.87;10.77;;;;;;;11.65;100.00;101585.97;5091216;28;20182;-75
2022/10/14 00:36:55;;;;;;;18.03;12.57;;;;;;;11.98;100.00;101648.25;5100618;28;20178;-75
2022/10/14 00:39:21;;;;;;;13.80;12.33;;;;;;;11.98;100.00;101645.56;5099946;28;20243;-75
2022/10/14 00:41:46;;;;;;;13.43;12.03;;;;;;;11.39;100.00;101562.28;5094235;28;20200;-75
2022/10/14 00:44:12;;;;;;;12.83;11.53;;;;;;;11.98;100.00;101652.78;5080199;28;20555;-75
2022/10/14 00:46:40;;;;;;;12.73;11.53;;;;;;;11.23;100.00;101503.41;5094851;28;20206;-75
2022/10/14 00:49:18;;;;;;;15.30;12.57;;;;;;;11.95;100.00;101651.31;5090614;28;20672;-75
2022/10/14 00:51:59;;;;;;;13.17;11.90;;;;;;;11.90;100.00;101639.47;5098295;28;20958;-75
2022/10/14 00:54:31;;;;;;;13.70;12.27;;;;;;;11.89;100.00;101649.38;5097650;28;20956;-74
2022/10/14 00:56:56;;;;;;;15.40;13.77;;;;;;;11.42;100.00;101561.91;5085396;28;20539;-75
2022/10/14 00:59:22;;;;;;;13.13;11.83;;;;;;;12.06;100.00;101657.22;5094302;28;20524;-74
2022/10/14 01:01:47;;;;;;;15.00;12.73;;;;;;;11.74;100.00;101611.75;5094258;28;20201;-74
2022/10/14 01:04:13;;;;;;;14.77;12.37;;;;;;;11.45;100.00;101564.22;5092315;28;20204;-75
2022/10/14 01:06:50;;;;;;;15.20;13.30;;;;;;;11.98;100.00;101650.09;5090463;28;20212;-74
2022/10/14 01:09:24;;;;;;;15.40;13.30;;;;;;;12.10;100.00;101653.16;5091186;28;20192;-75
2022/10/14 01:12:38;;;;;;;14.97;13.03;;;;;;;11.92;100.00;101649.00;5095016;28;20464;-75
2022/10/14 01:15:40;;;;;;;17.27;13.50;;;;;;;11.99;100.00;101649.91;5089556;28;20481;-75
2022/10/14 01:18:08;;;;;;;14.70;13.20;;;;;;;11.95;100.00;101645.94;5093850;28;20540;-75
2022/10/14 01:20:56;;;;;;;15.90;14.10;;;;;;;12.04;100.00;101645.84;5092711;28;20447;-75
2022/10/14 01:24:04;;;;;;;16.30;13.87;;;;;;;11.90;100.00;101632.22;5091074;28;20470;-75
2022/10/14 01:26:47;;;;;;;17.10;14.80;;;;;;;11.89;100.00;101638.63;5092860;28;20456;-75
2022/10/14 01:29:38;;;;;;;14.50;12.87;;;;;;;11.79;100.00;101635.34;5087369;28;21075;-75
2022/10/14 01:32:11;;;;;;;15.50;12.80;;;;;;;11.74;100.00;101633.25;5087451;28;20432;-75
2022/10/14 01:34:48;;;;;;;14.20;12.70;;;;;;;11.41;100.00;101579.06;5090863;28;20527;-75
2022/10/14 01:37:18;;;;;;;16.60;14.47;;;;;;;11.20;100.00;101546.75;5093919;28;20431;-76
2022/10/14 01:39:48;;;;;;;13.20;11.80;;;;;;;11.39;100.00;101562.28;5091746;28;20578;-75
2022/10/14 01:42:21;;;;;;;15.20;13.40;;;;;;;11.69;100.00;101616.84;5088348;28;20456;-75
2022/10/14 01:44:53;;;;;;;14.20;12.80;;;;;;;11.16;100.00;101535.53;5091303;28;20440;-76
2022/10/14 01:47:20;;;;;;;14.90;13.40;;;;;;;11.38;100.00;101562.47;5064169;28;20442;-75
2022/10/14 01:49:53;;;;;;;17.90;13.50;;;;;;;11.24;100.00;101562.28;5090855;28;20439;-75
2022/10/14 01:52:22;;;;;;;15.13;13.53;;;;;;;10.73;100.00;101481.69;5088496;28;20461;-75
2022/10/14 01:54:51;;;;;;;14.43;12.90;;;;;;;11.56;100.00;101610.44;5093745;28;20497;-75
2022/10/14 01:57:24;;;;;;;13.77;11.70;;;;;;;11.32;100.00;101590.91;5078081;28;21013;-75
2022/10/14 01:59:52;;;;;;;14.27;12.80;;;;;;;10.59;100.00;101493.22;5076991;28;21089;-75
2022/10/14 02:02:18;;;;;;;13.27;11.93;;;;;;;10.31;100.00;101463.47;5097168;28;20482;-75
2022/10/14 02:04:43;;;;;;;13.37;12.07;;;;;;;10.89;100.00;101574.59;5091408;28;20445;-75
2022/10/14 02:07:22;;;;;;;14.00;12.60;;;;;;;10.96;100.00;101591.59;5093887;28;20570;-75
2022/10/14 02:10:09;;;;;;;14.40;12.90;;;;;;;11.03;100.00;101586.38;5092505;28;20189;-75
2022/10/14 02:12:43;;;;;;;14.80;12.20;;;;;;;10.92;100.00;101579.59;5092611;28;20505;-75
2022/10/14 02:15:26;;;;;;;12.53;11.33;;;;;;;10.87;100.00;101581.97;5093226;28;20429;-75
2022/10/14 02:18:03;;;;;;;13.03;11.63;;;;;;;10.84;100.00;101574.28;5093180;28;20426;-75
2022/10/14 02:20:44;;;;;;;12.33;11.03;;;;;;;10.49;100.00;101514.09;5092781;28;20487;-75
2022/10/14 02:23:17;;;;;;;12.03;10.83;;;;;;;10.89;100.00;101563.84;5089157;28;20991;-75
2022/10/14 02:25:45;;;;;;;12.83;11.53;;;;;;;10.80;100.00;101565.78;5089325;28;20543;-75
2022/10/14 02:28:15;;;;;;;14.20;12.17;;;;;;;10.28;100.00;101467.34;5078077;28;20451;-75
2022/10/14 02:30:44;;;;;;;11.53;10.33;;;;;;;10.76;100.00;101558.25;5096715;28;20896;-75
2022/10/14 02:33:11;;;;;;;11.67;10.53;;;;;;;10.46;100.00;101493.00;5092688;28;20459;-75
2022/10/14 02:35:39;;;;;;;11.30;10.20;;;;;;;9.96;100.00;101425.53;5092363;28;20423;-75
2022/10/14 02:38:06;;;;;;;12.13;10.80;;;;;;;10.49;100.00;101506.88;5091983;28;20500;-75
2022/10/14 02:40:39;;;;;;;14.23;10.90;;;;;;;9.80;100.00;101431.03;5074148;28;20527;-75
2022/10/14 02:43:06;;;;;;;12.13;10.93;;;;;;;10.07;100.00;101488.63;5092785;28;20509;-76
2022/10/14 02:45:33;;;;;;;12.73;11.43;;;;;;;10.49;100.00;101546.28;5089963;28;20557;-75
2022/10/14 02:47:58;;;;;;;13.30;12.00;;;;;;;9.84;100.00;101454.63;5089029;28;20437;-75
2022/10/14 02:50:24;;;;;;;13.47;12.07;;;;;;;9.99;100.00;101465.38;5096196;28;21003;-75
2022/10/14 02:52:49;;;;;;;12.47;11.27;;;;;;;10.07;100.00;101486.78;5100552;28;20275;-74
2022/10/14 02:55:15;;;;;;;11.93;10.20;;;;;;;10.33;100.00;101534.69;5078880;28;20720;-74
2022/10/14 02:57:40;;;;;;;13.37;11.97;;;;;;;10.29;100.00;101540.56;5094666;28;20189;-74
2022/10/14 03:00:07;;;;;;;11.33;10.13;;;;;;;10.64;100.00;101533.72;5099718;28;20205;-74
2022/10/14 03:02:32;;;;;;;14.50;9.30;;;;;;;10.23;100.00;101535.91;5103548;28;20205;-74
2022/10/14 03:04:58;;;;;;;10.20;9.27;;;;;;;10.50;100.00;101570.25;5096507;28;20448;-74
2022/10/14 03:07:24;;;;;;;10.27;8.80;;;;;;;10.21;100.00;101572.78;5098165;28;20227;-74
2022/10/14 03:09:49;;;;;;;9.57;8.67;;;;;;;10.17;100.00;101538.28;5101720;28;20186;-74
2022/10/14 03:12:15;;;;;;;8.80;8.07;;;;;;;10.33;100.00;101579.44;5099410;28;20450;-75
2022/10/14 03:14:40;;;;;;;8.43;7.70;;;;;;;9.46;100.00;101426.94;5096237;28;20292;-75
2022/10/14 03:17:06;;;;;;;9.43;8.53;;;;;;;10.31;100.00;101568.06;5098090;28;20470;-74
2022/10/14 03:19:32;;;;;;;9.23;8.40;;;;;;;9.81;100.00;101494.34;5103783;28;20197;-74
2022/10/14 03:21:58;;;;;;;8.83;8.03;;;;;;;10.59;100.00;101565.66;5081979;28;20442;-74
2022/10/14 03:24:23;;;;;;;9.63;8.73;;;;;;;10.03;100.00;101496.16;5099399;28;20193;-74
2022/10/14 03:26:48;;;;;;;9.00;8.20;;;;;;;10.10;100.00;101498.97;5100952;28;20374;-74
2022/10/14 03:29:14;;;;;;;12.67;8.63;;;;;;;10.06;100.00;101543.22;5097212;28;20235;-74
2022/10/14 03:31:39;;;;;;;10.97;8.07;;;;;;;9.74;100.00;101491.50;5095235;28;20267;-74
2022/10/14 03:34:04;;;;;;;9.60;8.80;;;;;;;9.29;100.00;101444.94;5098666;28;20218;-74
2022/10/14 03:36:30;;;;;;;9.23;8.30;;;;;;;9.74;100.00;101516.44;5100265;28;20178;-74
2022/10/14 03:38:55;;;;;;;10.30;8.63;;;;;;;9.61;100.00;101489.44;5095751;28;20190;-74
2022/10/14 03:41:21;;;;;;;9.70;8.80;;;;;;;10.19;100.00;101575.66;5090693;28;20226;-74
2022/10/14 03:43:46;;;;;;;9.73;8.17;;;;;;;9.58;100.00;101494.31;5094429;28;20653;-74
2022/10/14 03:46:12;;;;;;;8.60;7.90;;;;;;;10.02;100.00;101550.78;5093380;28;20292;-74
2022/10/14 03:48:37;;;;;;;14.40;8.77;;;;;;;9.70;100.00;101511.63;5095076;28;20277;-75
2022/10/14 03:51:02;;;;;;;11.27;9.90;;;;;;;9.13;100.00;101488.66;5088450;28;20650;-74
2022/10/14 03:53:28;;;;;;;12.97;8.50;;;;;;;9.77;100.00;101538.56;5092816;28;20210;-74
2022/10/14 03:55:53;;;;;;;9.63;8.83;;;;;;;8.63;100.00;101379.34;5092676;28;20881;-74
2022/10/14 03:58:18;;;;;;;18.37;9.80;;;;;;;9.71;100.00;101572.22;5076444;28;20213;-74
2022/10/14 04:00:44;;;;;;;14.60;9.73;;;;;;;9.67;100.00;101563.72;5097129;28;20186;-74
2022/10/14 04:03:09;;;;;;;11.20;10.10;;;;;;;9.19;100.00;101481.75;5094188;28;20206;-74
2022/10/14 04:05:38;;;;;;;10.23;9.33;;;;;;;9.23;100.00;101451.81;5090187;28;20252;-76
2022/10/14 04:08:03;;;;;;;10.20;9.30;;;;;;;9.08;100.00;101448.19;5084313;28;21285;-74
2022/10/14 04:10:29;;;;;;;10.63;9.73;;;;;;;9.59;100.00;101549.53;5086276;28;20436;-74
2022/10/14 04:12:54;;;;;;;21.40;9.40;;;;;;;8.83;100.00;101453.63;5089705;28;20218;-73
2022/10/14 04:15:21;;;;;;;19.47;8.37;;;;;;;9.42;100.00;101551.44;5089305;28;20258;-73
2022/10/14 04:17:47;;;;;;;26.47;9.10;;;;;;;9.59;100.00;101570.97;5090132;28;20940;-74
2022/10/14 04:20:13;;;;;;;12.03;8.30;;;;;;;9.58;100.00;101574.66;5070877;28;20489;-73
2022/10/14 04:22:38;;;;;;;11.70;9.47;;;;;;;9.44;100.00;101587.75;5089625;28;20219;-73
2022/10/14 04:25:04;;;;;;;9.83;9.00;;;;;;;8.71;100.00;101433.63;5088535;28;20186;-73
2022/10/14 04:27:29;;;;;;;10.83;9.40;;;;;;;9.58;100.00;101596.91;5075626;28;20182;-74
2022/10/14 04:29:55;;;;;;;12.00;8.77;;;;;;;9.49;100.00;101581.88;5084069;28;20194;-73
2022/10/14 04:32:20;;;;;;;19.53;11.03;;;;;;;9.50;100.00;101579.03;5094506;28;20364;-73
2022/10/14 04:34:46;;;;;;;11.80;10.47;;;;;;;9.30;100.00;101518.03;5098837;28;20182;-73
2022/10/14 04:37:11;;;;;;;43.10;12.40;;;;;;;8.47;100.00;101431.00;5091859;28;20193;-73
2022/10/14 04:39:37;;;;;;;44.77;15.20;;;;;;;9.39;100.00;101600.81;5093084;28;20662;-74
2022/10/14 04:42:02;;;;;;;18.50;14.80;;;;;;;9.32;100.00;101543.63;5085543;28;20190;-74
2022/10/14 04:44:28;;;;;;;42.90;14.02;;;;;;;8.43;100.00;101451.06;5083546;28;20433;-74
2022/10/14 04:46:53;;;;;;;26.83;12.70;;;;;;;8.79;100.00;101481.75;5069667;28;20578;-73
2022/10/14 04:49:19;;;;;;;17.37;11.70;;;;;;;9.10;100.00;101561.25;5082632;28;20240;-76
2022/10/14 04:51:44;;;;;;;22.17;11.70;;;;;;;9.41;100.00;101569.34;5083820;28;20183;-74
2022/10/14 04:54:10;;;;;;;16.07;10.20;;;;;;;9.00;100.00;101515.97;5084778;28;20894;-73
2022/10/14 04:56:36;;;;;;;24.60;12.47;;;;;;;9.51;100.00;101598.59;5084791;28;20260;-73
2022/10/14 04:59:01;;;;;;;19.00;14.37;;;;;;;8.87;100.00;101522.84;5080000;28;20620;-74
2022/10/14 05:01:26;;;;;;;20.80;14.53;;;;;;;-145.14;100.00;70583.66;5076297;28;20219;-74
2022/10/14 05:03:52;;;;;;;24.57;14.70;;;;;;;8.87;100.00;101522.84;5078490;28;20217;-74
2022/10/14 05:06:17;;;;;;;21.07;14.77;;;;;;;-145.14;100.00;70583.66;5079126;28;20198;-74
2022/10/14 05:09:04;;;;;;;21.50;14.07;;;;;;;-145.14;100.00;70583.66;5063772;28;20182;-75
2022/10/14 05:11:29;;;;;;;23.23;13.47;;;;;;;-145.14;100.00;70583.66;5078937;28;20224;-73
2022/10/14 05:13:55;;;;;;;13.23;11.70;;;;;;;-145.14;100.00;70583.66;5055211;28;20563;-74
2022/10/14 05:16:20;;;;;;;18.90;11.70;;;;;;;-145.14;100.00;70583.66;5083097;28;20174;-73
2022/10/14 05:18:45;;;;;;;13.70;12.30;;;;;;;-145.14;100.00;70583.66;5085724;28;20190;-73
2022/10/14 05:21:11;;;;;;;13.23;11.23;;;;;;;-145.14;100.00;70583.66;5088640;28;20612;-73
2022/10/14 05:23:36;;;;;;;16.80;11.33;;;;;;;-145.14;100.00;70583.66;5081918;28;20209;-73
2022/10/14 05:26:02;;;;;;;15.13;11.90;;;;;;;-145.14;100.00;70583.66;5091130;28;20204;-73
2022/10/14 05:28:28;;;;;;;24.40;12.50;;;;;;;-145.14;100.00;70583.66;5093699;28;20185;-74
2022/10/14 05:30:54;;;;;;;14.63;13.00;;;;;;;-145.14;100.00;70583.66;5094519;28;20426;-74
2022/10/14 05:33:19;;;;;;;20.47;13.17;;;;;;;-145.14;100.00;70583.66;5087465;28;20197;-73
2022/10/14 05:35:45;;;;;;;12.20;10.80;;;;;;;-145.14;100.00;70583.66;5073174;28;20838;-73
2022/10/14 05:38:11;;;;;;;18.83;11.77;;;;;;;-145.14;100.00;70583.66;5078075;28;20273;-74
2022/10/14 05:40:36;;;;;;;13.23;11.60;;;;;;;-145.14;100.00;70583.66;5060123;28;21070;-72
2022/10/14 05:43:02;;;;;;;12.67;11.47;;;;;;;-145.14;100.00;70583.66;5088683;28;20504;-73
2022/10/14 05:45:28;;;;;;;16.57;12.63;;;;;;;-145.14;100.00;70583.66;5084323;28;20206;-73
2022/10/14 05:47:53;;;;;;;15.90;10.30;;;;;;;-145.14;100.00;70583.66;5074322;28;20431;-74
2022/10/14 05:50:19;;;;;;;19.63;10.50;;;;;;;-145.14;100.00;70583.66;5086173;28;20308;-73
2022/10/14 05:52:45;;;;;;;29.07;10.23;;;;;;;-145.14;100.00;70583.66;5088364;28;20293;-72
2022/10/14 05:55:10;;;;;;;30.53;9.93;;;;;;;-145.14;100.00;70583.66;5081519;28;20182;-73
2022/10/14 05:57:36;;;;;;;13.17;9.20;;;;;;;-145.14;100.00;70583.66;5080960;28;20620;-73
2022/10/14 06:00:04;;;;;;;10.57;9.57;;;;;;;-145.14;100.00;70583.66;5088070;28;20652;-74
2022/10/14 06:02:30;;;;;;;13.73;9.97;;;;;;;-145.14;100.00;70583.66;5088470;28;20239;-73
2022/10/14 06:04:56;;;;;;;11.90;10.70;;;;;;;-145.14;100.00;70583.66;5076969;28;20439;-73
2022/10/14 06:07:21;;;;;;;14.40;10.37;;;;;;;-145.14;100.00;70583.66;5080772;28;20460;-73
2022/10/14 06:09:46;;;;;;;14.43;12.90;;;;;;;-145.14;100.00;70583.66;5079834;28;20191;-74
2022/10/14 06:12:12;;;;;;;15.47;12.97;;;;;;;-145.14;100.00;70583.66;5070081;28;20691;-74
2022/10/14 06:14:37;;;;;;;14.50;12.50;;;;;;;-145.14;100.00;70583.66;5079213;28;20216;-74
2022/10/14 06:17:05;;;;;;;13.73;12.03;;;;;;;-145.14;100.00;70583.66;5062211;28;20271;-74
2022/10/14 06:19:31;;;;;;;13.30;11.20;;;;;;;-145.14;100.00;70583.66;5072372;28;20262;-73
2022/10/14 06:21:57;;;;;;;13.00;10.33;;;;;;;-145.14;100.00;70583.66;5087924;28;20437;-74
2022/10/14 06:24:22;;;;;;;21.43;10.87;;;;;;;-145.14;100.00;70583.66;5074753;28;21140;-74
2022/10/14 06:26:48;;;;;;;11.33;10.30;;;;;;;-145.14;100.00;70583.66;5073787;28;20288;-74
2022/10/14 06:29:14;;;;;;;11.77;8.10;;;;;;;-145.14;100.00;70583.66;5088662;28;21109;-75
2022/10/14 06:31:39;;;;;;;13.07;10.10;;;;;;;-145.14;100.00;70583.66;5078434;28;20190;-74
2022/10/14 06:34:05;;;;;;;10.90;9.40;;;;;;;-145.14;100.00;70583.66;5084836;28;20471;-75
2022/10/14 06:36:31;;;;;;;9.37;8.47;;;;;;;-145.14;100.00;70583.66;5085250;28;20175;-75
2022/10/14 06:38:56;;;;;;;11.30;9.33;;;;;;;-145.14;100.00;70583.66;5076943;28;20436;-75
2022/10/14 06:41:22;;;;;;;16.80;9.63;;;;;;;-145.14;100.00;70583.66;5083846;28;20186;-74
2022/10/14 06:43:48;;;;;;;14.23;9.67;;;;;;;-145.14;100.00;70583.66;5081638;28;20206;-75
2022/10/14 06:46:13;;;;;;;15.83;9.80;;;;;;;-145.14;100.00;70583.66;5067666;28;20944;-74
2022/10/14 06:48:39;;;;;;;9.37;7.70;;;;;;;-145.14;100.00;70583.66;5082857;28;20182;-74
2022/10/14 06:51:04;;;;;;;12.43;9.47;;;;;;;-145.14;100.00;70583.66;5070716;28;20183;-74
2022/10/14 06:53:30;;;;;;;13.57;9.07;;;;;;;-145.14;100.00;70583.66;5077212;28;20206;-74
2022/10/14 06:56:00;;;;;;;10.87;9.87;;;;;;;-145.14;100.00;70583.66;5089421;28;20178;-75
2022/10/14 06:58:25;;;;;;;21.83;10.10;;;;;;;-145.14;100.00;70583.66;5081665;28;20183;-74
2022/10/14 07:00:51;;;;;;;17.20;9.20;;;;;;;-145.14;100.00;70583.66;5083974;28;20437;-74
2022/10/14 07:03:16;;;;;;;8.93;8.10;;;;;;;-145.14;100.00;70583.66;5082808;28;20199;-75
2022/10/14 07:05:42;;;;;;;12.50;8.67;;;;;;;-145.14;100.00;70583.66;5063634;28;20979;-74
2022/10/14 07:08:07;;;;;;;34.40;9.43;;;;;;;-145.14;100.00;70583.66;5072694;28;20569;-74
2022/10/14 07:10:33;;;;;;;9.97;8.87;;;;;;;-145.14;100.00;70583.66;5075937;28;20722;-74
2022/10/14 07:12:58;;;;;;;19.43;9.67;;;;;;;-145.14;100.00;70583.66;5060394;28;20704;-74
2022/10/14 07:15:23;;;;;;;41.53;9.97;;;;;;;-145.14;100.00;70583.66;5086811;28;20604;-74
2022/10/14 07:17:49;;;;;;;14.60;8.97;;;;;;;-145.14;100.00;70583.66;5084465;28;20792;-74
2022/10/14 07:20:14;;;;;;;62.03;11.10;;;;;;;-145.14;100.00;70583.66;5087584;28;20214;-74
2022/10/14 07:22:40;;;;;;;30.77;10.93;;;;;;;-145.14;100.00;70583.66;5083221;28;20240;-75
2022/10/14 07:25:06;;;;;;;26.53;10.53;;;;;;;-145.14;100.00;70583.66;5090822;28;20214;-74
2022/10/14 07:27:32;;;;;;;33.53;10.60;;;;;;;-145.14;100.00;70583.66;5090095;28;20199;-74
2022/10/14 07:29:57;;;;;;;33.87;10.00;;;;;;;8.93;100.00;101412.47;5069853;28;20438;-74
2022/10/14 07:32:22;;;;;;;42.37;10.50;;;;;;;9.50;100.00;101524.63;5090459;28;20252;-74
2022/10/14 07:34:48;;;;;;;24.93;10.43;;;;;;;9.85;100.00;101570.66;5087027;28;20181;-74
2022/10/14 07:37:13;;;;;;;18.87;11.77;;;;;;;9.32;100.00;101489.25;5067120;28;20171;-75
2022/10/14 07:39:39;;;;;;;15.73;10.53;;;;;;;10.21;100.00;101618.34;5093767;28;20170;-75
2022/10/14 07:42:04;;;;;;;17.00;12.03;;;;;;;9.59;100.00;101509.34;5095358;28;20690;-74
2022/10/14 07:44:30;;;;;;;16.13;12.20;;;;;;;10.11;100.00;101615.91;5093290;28;20658;-75
2022/10/14 07:46:55;;;;;;;25.60;12.33;;;;;;;10.00;100.00;101592.19;5071266;28;20216;-74
2022/10/14 07:49:21;;;;;;;16.70;13.23;;;;;;;10.26;100.00;101606.06;5054289;28;20173;-75
2022/10/14 07:51:47;;;;;;;16.30;12.67;;;;;;;10.19;100.00;101608.66;5081518;28;20185;-74
2022/10/14 07:54:19;;;;;;;18.17;13.00;;;;;;;9.70;100.00;101498.25;5096468;28;20807;-75
2022/10/14 07:56:48;;;;;;;18.10;13.23;;;;;;;10.22;100.00;101599.41;5093189;28;20501;-74
2022/10/14 07:59:14;;;;;;;19.83;15.13;;;;;;;9.64;100.00;101507.81;5093561;28;20439;-74
2022/10/14 08:01:41;;;;;;;23.43;16.03;;;;;;;10.43;100.00;101620.25;5094901;28;20518;-75
2022/10/14 08:04:07;;;;;;;20.37;14.30;;;;;;;9.66;100.00;101486.19;5091582;28;20447;-75
2022/10/14 08:06:32;;;;;;;22.83;16.63;;;;;;;9.54;100.00;101461.66;5093261;28;20879;-74
2022/10/14 08:08:57;;;;;;;24.07;15.37;;;;;;;10.13;100.00;101562.97;5089938;28;20205;-74
2022/10/14 08:11:27;;;;;;;20.00;15.17;;;;;;;10.53;100.00;101628.03;5089515;28;20186;-75
2022/10/14 08:13:53;;;;;;;22.63;14.87;;;;;;;9.55;100.00;101495.50;5092423;28;20248;-75
2022/10/14 08:16:24;;;;;;;25.23;17.00;;;;;;;10.56;100.00;101651.84;5087014;28;20439;-75
2022/10/14 08:18:51;;;;;;;22.90;16.30;;;;;;;9.72;100.00;101507.78;5084339;28;20188;-75
2022/10/14 08:21:17;;;;;;;21.47;15.30;;;;;;;10.02;100.00;101532.03;5060376;28;20433;-75
2022/10/14 08:23:43;;;;;;;21.03;15.20;;;;;;;10.76;100.00;101642.31;5083863;28;20523;-75
2022/10/14 08:26:21;;;;;;;21.60;16.20;;;;;;;10.83;100.00;101651.28;5083226;28;20506;-75
2022/10/14 08:28:48;;;;;;;25.20;17.73;;;;;;;10.69;100.00;101653.94;5071682;28;20439;-75
2022/10/14 08:31:14;;;;;;;22.40;15.43;;;;;;;10.15;100.00;101536.78;5082618;28;20483;-76
2022/10/14 08:33:40;;;;;;;21.63;16.80;;;;;;;10.60;100.00;101596.81;5078714;28;20456;-75
2022/10/14 08:36:06;;;;;;;24.03;18.13;;;;;;;10.97;100.00;101657.72;5085429;28;20826;-75
2022/10/14 08:38:32;;;;;;;25.47;18.17;;;;;;;10.58;100.00;101582.75;5085789;28;20175;-75
2022/10/14 08:41:12;;;;;;;24.60;15.80;;;;;;;11.01;100.00;101644.75;5084624;28;20436;-75
2022/10/14 08:43:49;;;;;;;25.23;17.53;;;;;;;10.93;100.00;101642.16;5087057;28;20212;-74
2022/10/14 08:46:56;;;;;;;24.00;17.30;;;;;;;10.02;100.00;101512.44;5085499;28;22180;-76
2022/10/14 08:49:29;;;;;;;24.20;17.63;;;;;;;10.99;100.00;101626.16;5080880;28;22924;-75
2022/10/14 08:52:17;;;;;;;34.07;19.50;;;;;;;10.58;100.00;101588.09;5084548;28;20433;-75
2022/10/14 08:54:50;;;;;;;25.10;18.07;;;;;;;10.71;100.00;101572.25;5060369;28;20958;-76
2022/10/14 08:57:24;;;;;;;23.77;17.43;;;;;;;10.24;100.00;101478.56;5056512;22;20509;-82
2022/10/14 08:59:50;;;;;;;23.93;16.80;;;;;;;9.31;100.00;101343.00;5025612;28;20454;-82
2022/10/14 09:02:29;;;;;;;24.63;17.40;;;;;;;9.24;100.00;101305.41;5029109;28;20800;-82
2022/10/14 09:04:57;;;;;;;21.30;16.20;;;;;;;10.49;100.00;101493.47;5041737;28;20438;-78
2022/10/14 09:07:23;;;;;;;21.43;16.93;;;;;;;10.01;100.00;101435.72;5039546;28;20485;-83
2022/10/14 09:09:52;;;;;;;20.50;17.23;;;;;;;9.18;100.00;101271.34;5027807;28;20449;-81
2022/10/14 09:12:25;;;;;;;24.30;17.60;;;;;;;9.53;100.00;101336.81;5038594;28;20408;-81
2022/10/14 09:15:26;;;;;;;25.53;18.77;;;;;;;9.50;100.00;101345.22;5042138;28;20433;-82
2022/10/14 09:18:00;;;;;;;23.13;17.57;;;;;;;9.70;100.00;101385.75;5032012;28;20439;-81
2022/10/14 09:20:27;;;;;;;24.90;18.57;;;;;;;9.94;100.00;101411.50;5041310;28;20434;-82
2022/10/14 09:23:24;;;;;;;24.43;17.17;;;;;;;10.61;100.00;101524.19;5042979;28;20446;-80
2022/10/14 09:26:10;;;;;;;24.10;17.77;;;;;;;10.39;100.00;101463.41;5027663;28;20477;-82
2022/10/14 09:28:39;;;;;;;26.77;16.30;;;;;;;9.93;100.00;101391.06;5044560;28;20904;-81
2022/10/14 09:31:06;;;;;;;20.77;15.90;;;;;;;10.75;100.00;101511.81;5041080;28;20437;-84
2022/10/14 09:33:38;;;;;;;19.63;15.87;;;;;;;9.69;100.00;101327.81;5042127;28;20477;-81
2022/10/14 09:36:04;;;;;;;23.53;16.63;;;;;;;10.14;100.00;101417.19;5041427;28;20521;-81
2022/10/14 09:38:30;;;;;;;20.63;16.43;;;;;;;10.25;100.00;101416.75;5024320;28;20483;-80
2022/10/14 09:40:58;;;;;;;20.57;16.10;;;;;;;11.66;100.00;101606.47;5037657;28;20471;-81
2022/10/14 09:43:24;;;;;;;23.47;16.70;;;;;;;9.76;100.00;101266.31;5039564;28;20177;-80
2022/10/14 09:46:09;;;;;;;23.07;16.83;;;;;;;9.81;100.00;101251.34;5041522;28;20474;-81
2022/10/14 09:48:47;;;;;;;23.30;17.63;;;;;;;9.66;100.00;101254.03;5027837;28;20524;-83
2022/10/14 09:51:27;;;;;;;21.37;16.37;;;;;;;12.10;100.00;101589.44;5026978;28;20438;-82
2022/10/14 09:54:21;;;;;;;19.90;15.17;;;;;;;11.01;100.00;101379.84;5035499;28;20468;-81
2022/10/14 09:56:48;;;;;;;20.77;16.23;;;;;;;10.25;100.00;101268.47;5026555;28;20469;-80
2022/10/14 09:59:19;;;;;;;17.20;14.63;;;;;;;10.37;100.00;101308.03;5039325;28;20945;-80
2022/10/14 10:01:51;;;;;;;18.90;15.10;;;;;;;10.60;100.00;101347.34;5031191;28;20438;-80
2022/10/14 10:04:46;;;;;;;20.00;14.87;;;;;;;10.70;100.00;101325.56;5037570;28;20526;-79
2022/10/14 10:07:31;;;;;;;27.20;17.27;;;;;;;12.29;100.00;101584.44;5041233;28;20462;-79
2022/10/14 10:10:03;;;;;;;20.37;16.53;;;;;;;12.06;100.00;101550.47;5041089;28;20454;-79
2022/10/14 10:12:31;;;;;;;21.60;16.73;;;;;;;11.16;100.00;101355.63;5024995;28;20564;-80
2022/10/14 10:15:02;;;;;;;18.57;15.10;;;;;;;10.61;100.00;101222.91;5039588;28;20536;-78
2022/10/14 10:17:31;;;;;;;19.70;17.27;;;;;;;12.75;100.00;101589.41;5040952;28;20457;-80
2022/10/14 10:20:27;;;;;;;26.83;17.67;;;;;;;12.57;100.00;101569.19;5040727;28;21228;-81
2022/10/14 10:22:53;;;;;;;22.83;18.33;;;;;;;11.14;100.00;101349.63;5042512;28;20437;-79
2022/10/14 10:25:24;;;;;;;24.10;19.53;;;;;;;11.80;100.00;101405.84;5038857;28;20497;-80
2022/10/14 10:27:51;;;;;;;22.90;19.03;;;;;;;12.28;100.00;101435.66;5041386;28;20426;-80
2022/10/14 10:30:16;;;;;;;21.40;18.10;;;;;;;13.27;100.00;101550.44;5039165;28;21002;-80
2022/10/14 10:32:49;;;;;;;24.80;18.83;;;;;;;13.43;100.00;101530.41;5040420;28;20542;-79
2022/10/14 10:35:21;;;;;;;28.50;19.53;;;;;;;13.26;100.00;101544.22;5025537;28;20238;-79
2022/10/14 10:38:02;;;;;;;23.00;18.93;;;;;;;11.75;100.00;101346.50;5041130;28;20956;-79
2022/10/14 10:40:35;;;;;;;21.77;18.07;;;;;;;12.97;100.00;101544.44;5027668;28;20441;-79
2022/10/14 10:43:21;;;;;;;24.03;19.77;;;;;;;12.64;100.00;101510.88;5035910;28;20436;-79
2022/10/14 10:45:47;;;;;;;24.87;19.00;;;;;;;12.75;100.00;101503.28;5040409;28;20527;-79
2022/10/14 10:48:25;;;;;;;22.10;18.50;;;;;;;12.70;100.00;101501.19;5040705;28;20422;-79
2022/10/14 10:50:56;;;;;;;21.83;16.90;;;;;;;10.77;100.00;101160.13;5040007;28;20959;-79
2022/10/14 10:53:39;;;;;;;22.20;18.60;;;;;;;12.76;100.00;101484.25;5025171;28;21003;-79
2022/10/14 10:56:12;;;;;;;18.57;15.80;;;;;;;12.88;100.00;101477.28;5039849;28;20458;-79
2022/10/14 10:58:37;;;;;;;18.97;15.33;;;;;;;12.96;100.00;101464.66;5025137;28;20430;-79
2022/10/14 11:01:35;;;;;;;21.60;16.80;;;;;;;11.40;100.00;101225.53;5022106;28;20442;-79
2022/10/14 11:04:25;;;;;;;20.80;15.60;;;;;;;12.36;100.00;101365.59;4947294;28;20201;-80
2022/10/14 11:13:35;;;;;;;21.97;17.77;;;;;;;13.20;100.00;101439.09;4990884;28;20421;-79
2022/10/14 11:16:09;;;;;;;21.57;16.60;;;;;;;13.21;100.00;101425.41;5027482;28;20480;-79
2022/10/14 11:19:00;;;;;;;20.97;16.67;;;;;;;13.12;100.00;101416.69;5042319;28;20465;-79
2022/10/14 11:21:43;;;;;;;20.40;17.10;;;;;;;11.73;100.00;101231.13;5043085;28;20427;-76